Tutti
Adels Grove Airport (Adels Grove, Queensland) YALG Meteo
There is no TAF data available at YALG or any nearby airports.
There is no METAR data available at YALG. Showing METAR data for YCNY (12 mi E).
Storico METAR YCNY recente (nessun dato per YALG)
| Date | Time (AEST) | Flight Rules | Wind Dir. | Speed | Type | Height AGL (ft) | Visibility | Temp (°C) | Temp (°F) | Dew Point (°C) | Dew Point (°F) | Rel. Humid. | Pressure | Density Altitude | Remarks |
|---|---|---|---|---|---|---|---|---|---|---|---|---|---|---|---|
| 08-mag | 20:00 | n/a | 170° | 6 kt | Missing | 25° | 77° | 12° | 53° | 44% | 1016 mb | 1.534 ft | |||
| 08-mag | 19:00 | n/a | 160° | 7 kt | Missing | 26° | 78° | 12° | 53° | 42% | 1015 mb | 1.683 ft | |||
| 08-mag | 18:00 | n/a | 150° | 8 kt | Missing | 27° | 80° | 12° | 53° | 39% | 1014 mb | 1.833 ft | |||
| 08-mag | 17:00 | n/a | 150° | 9 kt | Missing | 29° | 84° | 13° | 55° | 37% | 1014 mb | 2.073 ft | |||
| 08-mag | 16:00 | n/a | 150° | 9 kt | Missing | 30° | 86° | 13° | 55° | 35% | 1014 mb | 2.193 ft | |||
| 08-mag | 15:00 | n/a | 130° | 11 kt | Missing | 28° | 82° | 12° | 53° | 37% | 1014 mb | 1.953 ft | |||
| 08-mag | 14:00 | n/a | 140° | 9 kt | Missing | 30° | 86° | 12° | 53° | 33% | 1014 mb | 2.193 ft | |||
| 08-mag | 13:00 | n/a | 130° | 13 kt | Missing | 29° | 84° | 12° | 53° | 35% | 1015 mb | 2.043 ft | |||
| 08-mag | 12:00 | n/a | 140° | 12 kt | Missing | 27° | 80° | 10° | 50° | 34% | 1016 mb | 1.774 ft | |||
| 08-mag | 11:00 | n/a | 140° | 11 kt | Missing | 25° | 77° | 9° | 48° | 36% | 1017 mb | 1.504 ft | |||
| 08-mag | 10:00 | n/a | 170° | 14 kt | Missing | 24° | 75° | 7° | 44° | 34% | 1018 mb | 1.354 ft | |||
| 08-mag | 09:00 | n/a | 170° | 9 kt | Missing | 22° | 71° | 7° | 44° | 38% | 1017 mb | 1.144 ft | |||
| 08-mag | 08:00 | n/a | 190° | 7 kt | Missing | 19° | 66° | 6° | 42° | 43% | 1017 mb | 784 ft | |||
| 08-mag | 07:00 | n/a | 200° | 8 kt | Missing | 19° | 66° | 6° | 42° | 43% | 1017 mb | 784 ft | |||
| 08-mag | 06:00 | n/a | 200° | 7 kt | Missing | 19° | 66° | 7° | 44° | 46% | 1016 mb | 814 ft | |||
| 08-mag | 05:00 | n/a | 200° | 7 kt | Missing | 19° | 66° | 7° | 44° | 46% | 1016 mb | 814 ft | |||
| 08-mag | 04:00 | n/a | 200° | 7 kt | Missing | 20° | 68° | 8° | 46° | 46% | 1016 mb | 934 ft | |||
| 08-mag | 03:00 | n/a | 190° | 7 kt | Missing | 21° | 69° | 8° | 46° | 43% | 1016 mb | 1.054 ft | |||
| 08-mag | 02:00 | n/a | 190° | 8 kt | Missing | 22° | 71° | 8° | 46° | 41% | 1016 mb | 1.174 ft | |||
| 08-mag | 01:00 | n/a | 190° | 8 kt | Missing | 22° | 71° | 10° | 50° | 46% | 1016 mb | 1.174 ft | |||
| 08-mag | 00:00 | n/a | 190° | 8 kt | Missing | 23° | 73° | 11° | 51° | 47% | 1016 mb | 1.294 ft | |||
| 07-mag | 23:00 | n/a | 170° | 8 kt | Missing | 24° | 75° | 12° | 53° | 47% | 1016 mb | 1.414 ft | |||
| 07-mag | 22:00 | n/a | 170° | 10 kt | Missing | 25° | 77° | 12° | 53° | 44% | 1016 mb | 1.534 ft | |||
| 07-mag | 21:00 | n/a | 180° | 7 kt | Missing | 25° | 77° | 13° | 55° | 47% | 1016 mb | 1.534 ft |
Accedi
| Il tuo browser non è supportato. fai l'upgrade del tuo browser |
